N350JM GOBD-LPPT
Flight info
| Callsign | N350JM |
|---|---|
| Flight time | N/A |
| Altitude | 39000 |
| Route | LIMAX1B LIMAX UB600 PE DCT MAURI L660 DKH M660 GDV N873 SAMAR DCT BEXAL DCT LUVUP |
| Aircraft | B772/H-SDE2E3FGHIJ5LORVWXY/LB1D1 |
Departure
| Time | 2026-04-26 09:30 |
|---|---|
| Airport | Blaise Diagne International Airport (GOBD) |
Arrival
| Time | N/A |
|---|---|
| Airport | Lisbon Humberto Delgado Airport (LPPT) |
| Time | Latitude | Longitude | Altitude | Speed | Heading |
|---|---|---|---|---|---|
| 2026-04-26 08:31 | 14.66790 | -17.06880 | 278 ft | 0 kts | 359° |
| 2026-04-26 09:15 | 14.66772 | -17.06881 | 278 ft | 3 kts | 2° |
| 2026-04-26 09:15 | 14.66751 | -17.06881 | 285 ft | 4 kts | 335° |
| 2026-04-26 09:15 | 14.66742 | -17.06876 | 278 ft | 4 kts | 273° |
| 2026-04-26 09:15 | 14.66745 | -17.06851 | 284 ft | 4 kts | 263° |
| 2026-04-26 09:16 | 14.66746 | -17.06837 | 278 ft | 3 kts | 270° |
| 2026-04-26 09:23 | 14.66746 | -17.06869 | 278 ft | 9 kts | 270° |
| 2026-04-26 09:24 | 14.66728 | -17.06900 | 278 ft | 5 kts | 195° |
| 2026-04-26 09:24 | 14.66695 | -17.06901 | 278 ft | 5 kts | 182° |
| 2026-04-26 09:24 | 14.66664 | -17.06911 | 278 ft | 5 kts | 220° |
| 2026-04-26 09:24 | 14.66662 | -17.06945 | 278 ft | 5 kts | 272° |
| 2026-04-26 09:25 | 14.66663 | -17.06993 | 278 ft | 9 kts | 268° |
| 2026-04-26 09:25 | 14.66648 | -17.07067 | 278 ft | 12 kts | 233° |
| 2026-04-26 09:25 | 14.66560 | -17.07087 | 279 ft | 15 kts | 180° |
| 2026-04-26 09:25 | 14.66442 | -17.07087 | 280 ft | 18 kts | 180° |
| 2026-04-26 09:26 | 14.66315 | -17.07088 | 280 ft | 18 kts | 180° |
| 2026-04-26 09:26 | 14.66189 | -17.07083 | 281 ft | 18 kts | 178° |
| 2026-04-26 09:26 | 14.66063 | -17.07081 | 282 ft | 18 kts | 179° |
| 2026-04-26 09:26 | 14.65936 | -17.07080 | 283 ft | 18 kts | 179° |
| 2026-04-26 09:27 | 14.65810 | -17.07079 | 283 ft | 18 kts | 181° |
| 2026-04-26 09:27 | 14.65683 | -17.07078 | 284 ft | 18 kts | 179° |
| 2026-04-26 09:27 | 14.65568 | -17.07077 | 285 ft | 8 kts | 181° |
| 2026-04-26 09:27 | 14.65536 | -17.07113 | 285 ft | 7 kts | 252° |
| 2026-04-26 09:28 | 14.65530 | -17.07166 | 285 ft | 7 kts | 268° |
| 2026-04-26 09:28 | 14.65530 | -17.07219 | 285 ft | 7 kts | 270° |
| 2026-04-26 09:28 | 14.65543 | -17.07257 | 285 ft | 4 kts | 321° |
| 2026-04-26 09:28 | 14.65569 | -17.07266 | 285 ft | 4 kts | 351° |
| 2026-04-26 09:29 | 14.65584 | -17.07267 | 285 ft | 0 kts | 358° |
| 2026-04-26 09:29 | 14.65641 | -17.07268 | 284 ft | 26 kts | 359° |
| 2026-04-26 09:30 | 14.66078 | -17.07273 | 280 ft | 101 kts | 359° |
| 2026-04-26 09:30 | 14.67008 | -17.07283 | 332 ft | 160 kts | 359° |
| 2026-04-26 09:30 | 14.68102 | -17.07288 | 1247 ft | 152 kts | 1° |
| 2026-04-26 09:30 | 14.69198 | -17.07283 | 2045 ft | 160 kts | 0° |
| 2026-04-26 09:31 | 14.70411 | -17.07295 | 2414 ft | 191 kts | 358° |
| 2026-04-26 09:31 | 14.71836 | -17.07316 | 2646 ft | 220 kts | 358° |
| 2026-04-26 09:31 | 14.73460 | -17.07337 | 2928 ft | 244 kts | 358° |
| 2026-04-26 09:31 | 14.75203 | -17.07356 | 3526 ft | 255 kts | 358° |
| 2026-04-26 09:32 | 14.77008 | -17.07375 | 4173 ft | 264 kts | 357° |
| 2026-04-26 09:32 | 14.78862 | -17.07394 | 4872 ft | 269 kts | 357° |
| 2026-04-26 09:32 | 14.80748 | -17.07413 | 5604 ft | 273 kts | 357° |
| 2026-04-26 09:32 | 14.82665 | -17.07431 | 6283 ft | 278 kts | 357° |
| 2026-04-26 09:33 | 14.84625 | -17.07449 | 6906 ft | 285 kts | 357° |
| 2026-04-26 09:33 | 14.86628 | -17.07468 | 7521 ft | 291 kts | 357° |
| 2026-04-26 09:33 | 14.88646 | -17.07486 | 8114 ft | 297 kts | 357° |
| 2026-04-26 09:33 | 14.90724 | -17.07506 | 8747 ft | 301 kts | 358° |
| 2026-04-26 09:34 | 14.92837 | -17.07526 | 9377 ft | 306 kts | 358° |
| 2026-04-26 09:34 | 14.94978 | -17.07546 | 9987 ft | 309 kts | 358° |
| 2026-04-26 09:34 | 14.97168 | -17.07567 | 10319 ft | 324 kts | 358° |
| 2026-04-26 09:34 | 14.99494 | -17.07591 | 10469 ft | 345 kts | 358° |
| 2026-04-26 09:35 | 15.01978 | -17.07616 | 10627 ft | 368 kts | 358° |
| 2026-04-26 09:35 | 15.04592 | -17.07641 | 11051 ft | 382 kts | 358° |
| 2026-04-26 09:35 | 15.07280 | -17.07666 | 11724 ft | 391 kts | 358° |
| 2026-04-26 09:35 | 15.10016 | -17.07690 | 12642 ft | 393 kts | 358° |
| 2026-04-26 09:36 | 15.12753 | -17.07714 | 13636 ft | 395 kts | 357° |
| 2026-04-26 09:36 | 15.15513 | -17.07740 | 14472 ft | 398 kts | 357° |
| 2026-04-26 09:36 | 15.18290 | -17.07765 | 15292 ft | 400 kts | 357° |
| 2026-04-26 09:36 | 15.21079 | -17.07792 | 16103 ft | 402 kts | 356° |
| 2026-04-26 09:37 | 15.23890 | -17.07818 | 16876 ft | 405 kts | 356° |
| 2026-04-26 09:37 | 15.26718 | -17.07845 | 17625 ft | 408 kts | 356° |
| 2026-04-26 09:37 | 15.29567 | -17.07872 | 18333 ft | 410 kts | 356° |
| 2026-04-26 09:37 | 15.32431 | -17.07900 | 18904 ft | 414 kts | 356° |
| 2026-04-26 09:38 | 15.35323 | -17.08001 | 19422 ft | 416 kts | 351° |
| 2026-04-26 09:38 | 15.38194 | -17.08393 | 19916 ft | 418 kts | 347° |
| 2026-04-26 09:38 | 15.41069 | -17.08940 | 20453 ft | 421 kts | 345° |
| 2026-04-26 09:38 | 15.43954 | -17.09534 | 20976 ft | 424 kts | 345° |
| 2026-04-26 09:39 | 15.46855 | -17.10128 | 21525 ft | 427 kts | 345° |
| 2026-04-26 09:39 | 15.49784 | -17.10709 | 22033 ft | 430 kts | 345° |
| 2026-04-26 09:39 | 15.52733 | -17.11274 | 22527 ft | 434 kts | 346° |
| 2026-04-26 09:39 | 15.55716 | -17.11830 | 22990 ft | 437 kts | 346° |
| 2026-04-26 09:40 | 15.58728 | -17.12382 | 23444 ft | 441 kts | 346° |
| 2026-04-26 09:40 | 15.61765 | -17.12932 | 23844 ft | 444 kts | 346° |
| 2026-04-26 09:40 | 15.64812 | -17.13482 | 24280 ft | 446 kts | 346° |
| 2026-04-26 09:40 | 15.67874 | -17.14033 | 24743 ft | 446 kts | 346° |
| 2026-04-26 09:41 | 15.70932 | -17.14584 | 25193 ft | 447 kts | 346° |
| 2026-04-26 09:41 | 15.74000 | -17.15138 | 25615 ft | 449 kts | 345° |
| 2026-04-26 09:41 | 15.77085 | -17.15696 | 26040 ft | 450 kts | 345° |
| 2026-04-26 09:41 | 15.80178 | -17.16256 | 26453 ft | 452 kts | 345° |
| 2026-04-26 09:42 | 15.83281 | -17.16818 | 26878 ft | 453 kts | 345° |
| 2026-04-26 09:42 | 15.86390 | -17.17382 | 27300 ft | 455 kts | 345° |
| 2026-04-26 09:42 | 15.89513 | -17.17948 | 27733 ft | 456 kts | 345° |
| 2026-04-26 09:42 | 15.92641 | -17.18516 | 28151 ft | 458 kts | 345° |
| 2026-04-26 09:43 | 15.95789 | -17.19087 | 28541 ft | 459 kts | 345° |
| 2026-04-26 09:43 | 15.98902 | -17.19652 | 28939 ft | 461 kts | 345° |
| 2026-04-26 09:43 | 16.02069 | -17.20227 | 29323 ft | 463 kts | 344° |
| 2026-04-26 09:43 | 16.05281 | -17.20811 | 29707 ft | 464 kts | 344° |
| 2026-04-26 09:44 | 16.08468 | -17.21389 | 30059 ft | 466 kts | 344° |
| 2026-04-26 09:44 | 16.11664 | -17.21970 | 30334 ft | 467 kts | 344° |
| 2026-04-26 09:44 | 16.14876 | -17.22554 | 30579 ft | 470 kts | 344° |
| 2026-04-26 09:44 | 16.18061 | -17.23134 | 30800 ft | 472 kts | 344° |
| 2026-04-26 09:45 | 16.21303 | -17.23724 | 31033 ft | 474 kts | 344° |
| 2026-04-26 09:45 | 16.24560 | -17.24316 | 31265 ft | 476 kts | 344° |
| 2026-04-26 09:45 | 16.27827 | -17.24911 | 31466 ft | 478 kts | 344° |
| 2026-04-26 09:45 | 16.31110 | -17.25509 | 31698 ft | 480 kts | 344° |
| 2026-04-26 09:46 | 16.34397 | -17.26107 | 31972 ft | 480 kts | 344° |
| 2026-04-26 09:46 | 16.37688 | -17.26705 | 32304 ft | 479 kts | 344° |
| 2026-04-26 09:46 | 16.39899 | -17.27107 | 32537 ft | 478 kts | 344° |
| 2026-04-26 09:46 | 16.44232 | -17.27896 | 32983 ft | 477 kts | 343° |
| 2026-04-26 09:47 | 16.46443 | -17.28299 | 33192 ft | 477 kts | 343° |
| 2026-04-26 09:47 | 16.50768 | -17.29088 | 33627 ft | 476 kts | 343° |
| 2026-04-26 09:47 | 16.52977 | -17.29492 | 33836 ft | 476 kts | 343° |
| 2026-04-26 09:47 | 16.56235 | -17.30087 | 34149 ft | 476 kts | 343° |
| 2026-04-26 09:48 | 16.59497 | -17.30683 | 34436 ft | 476 kts | 343° |
| 2026-04-26 09:48 | 16.62764 | -17.31280 | 34710 ft | 476 kts | 343° |
| 2026-04-26 09:48 | 16.66019 | -17.31875 | 35009 ft | 476 kts | 343° |
| 2026-04-26 09:48 | 16.69278 | -17.32471 | 35297 ft | 475 kts | 343° |
| 2026-04-26 09:49 | 16.72492 | -17.33059 | 35583 ft | 475 kts | 343° |
| 2026-04-26 09:49 | 16.75810 | -17.33557 | 35861 ft | 481 kts | 350° |
| 2026-04-26 09:49 | 16.79143 | -17.33526 | 36118 ft | 488 kts | 356° |
| 2026-04-26 09:49 | 16.82537 | -17.33272 | 36391 ft | 490 kts | 358° |
| 2026-04-26 09:50 | 16.85930 | -17.32946 | 36672 ft | 490 kts | 358° |
| 2026-04-26 09:50 | 16.89329 | -17.32612 | 36948 ft | 490 kts | 358° |
| 2026-04-26 09:50 | 16.92715 | -17.32302 | 37221 ft | 489 kts | 357° |
| 2026-04-26 09:50 | 16.96106 | -17.32021 | 37488 ft | 488 kts | 356° |
| 2026-04-26 09:51 | 16.99498 | -17.31762 | 37756 ft | 488 kts | 356° |
| 2026-04-26 09:51 | 17.02881 | -17.31520 | 38019 ft | 487 kts | 356° |
| 2026-04-26 09:51 | 17.06259 | -17.31285 | 38263 ft | 487 kts | 356° |
| 2026-04-26 09:51 | 17.09642 | -17.31052 | 38514 ft | 487 kts | 356° |
| 2026-04-26 09:52 | 17.13026 | -17.30819 | 38737 ft | 486 kts | 356° |
| 2026-04-26 09:52 | 17.19808 | -17.30349 | 38913 ft | 491 kts | 356° |
| 2026-04-26 09:52 | 17.23224 | -17.30110 | 38944 ft | 492 kts | 356° |
| 2026-04-26 09:53 | 17.30038 | -17.29627 | 38943 ft | 488 kts | 356° |
| 2026-04-26 09:53 | 17.36780 | -17.29146 | 38946 ft | 484 kts | 356° |
| 2026-04-26 09:54 | 17.43475 | -17.28674 | 38960 ft | 482 kts | 356° |
| 2026-04-26 09:54 | 17.50159 | -17.28205 | 38955 ft | 481 kts | 355° |
| 2026-04-26 09:55 | 17.56842 | -17.27734 | 38949 ft | 481 kts | 356° |
| 2026-04-26 09:55 | 17.63559 | -17.27262 | 39122 ft | 485 kts | 356° |
| 2026-04-26 09:56 | 17.66928 | -17.27023 | 39348 ft | 484 kts | 356° |
| 2026-04-26 09:56 | 17.70284 | -17.26784 | 39579 ft | 483 kts | 356° |
| 2026-04-26 09:56 | 17.73630 | -17.26546 | 39772 ft | 482 kts | 356° |
| 2026-04-26 09:56 | 17.76979 | -17.26308 | 39976 ft | 482 kts | 355° |
| 2026-04-26 09:57 | 17.80321 | -17.26071 | 40156 ft | 482 kts | 355° |
| 2026-04-26 09:57 | 17.83667 | -17.25834 | 40341 ft | 481 kts | 355° |
| 2026-04-26 09:57 | 17.87011 | -17.25597 | 40525 ft | 481 kts | 355° |
| 2026-04-26 09:57 | 17.90342 | -17.25361 | 40704 ft | 481 kts | 355° |
| 2026-04-26 09:58 | 17.93681 | -17.25125 | 40830 ft | 481 kts | 355° |
| 2026-04-26 09:58 | 17.96979 | -17.24891 | 40903 ft | 482 kts | 355° |
| 2026-04-26 09:58 | 18.03689 | -17.24416 | 40952 ft | 483 kts | 355° |
| 2026-04-26 09:59 | 18.10374 | -17.23938 | 40958 ft | 481 kts | 355° |
| 2026-04-26 09:59 | 18.17086 | -17.23460 | 40956 ft | 479 kts | 355° |
| 2026-04-26 10:00 | 18.23688 | -17.22990 | 40958 ft | 478 kts | 355° |
| 2026-04-26 10:00 | 18.30316 | -17.22519 | 40958 ft | 477 kts | 355° |
| 2026-04-26 10:01 | 18.36948 | -17.22046 | 40958 ft | 477 kts | 355° |
| 2026-04-26 10:01 | 18.43584 | -17.21573 | 40964 ft | 478 kts | 355° |
| 2026-04-26 10:02 | 18.50222 | -17.21097 | 40963 ft | 479 kts | 355° |
| 2026-04-26 10:02 | 18.56878 | -17.20619 | 40964 ft | 480 kts | 355° |
| 2026-04-26 10:03 | 18.63549 | -17.20138 | 40959 ft | 481 kts | 355° |
| 2026-04-26 10:03 | 18.70229 | -17.19657 | 40955 ft | 481 kts | 355° |
| 2026-04-26 10:04 | 18.76918 | -17.19175 | 40965 ft | 482 kts | 354° |
| 2026-04-26 10:04 | 18.83603 | -17.18692 | 40968 ft | 482 kts | 354° |
| 2026-04-26 10:05 | 18.90310 | -17.18208 | 40968 ft | 482 kts | 355° |
| 2026-04-26 10:05 | 18.97004 | -17.17724 | 40964 ft | 482 kts | 355° |
| 2026-04-26 10:06 | 19.03704 | -17.17239 | 40963 ft | 482 kts | 354° |
| 2026-04-26 10:06 | 19.10355 | -17.16757 | 40966 ft | 482 kts | 354° |
| 2026-04-26 10:07 | 19.17037 | -17.16273 | 40958 ft | 481 kts | 354° |
| 2026-04-26 10:07 | 19.23721 | -17.15789 | 40976 ft | 481 kts | 354° |
| 2026-04-26 10:08 | 19.30404 | -17.15304 | 40967 ft | 481 kts | 354° |
| 2026-04-26 10:08 | 19.37085 | -17.14819 | 40968 ft | 481 kts | 354° |
| 2026-04-26 10:09 | 19.43762 | -17.14334 | 40970 ft | 481 kts | 354° |
| 2026-04-26 10:09 | 19.50444 | -17.13848 | 40970 ft | 481 kts | 354° |
| 2026-04-26 10:10 | 19.57130 | -17.13362 | 40971 ft | 482 kts | 354° |
| 2026-04-26 10:10 | 19.63820 | -17.12875 | 40972 ft | 482 kts | 354° |
| 2026-04-26 10:11 | 19.70507 | -17.12387 | 40973 ft | 482 kts | 354° |
| 2026-04-26 10:11 | 19.77202 | -17.11898 | 40972 ft | 482 kts | 354° |
| 2026-04-26 10:12 | 19.83900 | -17.11409 | 40976 ft | 483 kts | 354° |
| 2026-04-26 10:12 | 19.90606 | -17.10919 | 40977 ft | 483 kts | 354° |
| 2026-04-26 10:13 | 19.97309 | -17.10429 | 40979 ft | 483 kts | 354° |
| 2026-04-26 10:13 | 20.04014 | -17.09938 | 40980 ft | 483 kts | 354° |
| 2026-04-26 10:14 | 20.10729 | -17.09446 | 40982 ft | 483 kts | 354° |
| 2026-04-26 10:14 | 20.17433 | -17.08954 | 40976 ft | 483 kts | 354° |
| 2026-04-26 10:15 | 20.24142 | -17.08461 | 40983 ft | 483 kts | 354° |
| 2026-04-26 10:15 | 20.30850 | -17.07968 | 40981 ft | 483 kts | 354° |
| 2026-04-26 10:16 | 20.37558 | -17.07475 | 40991 ft | 483 kts | 354° |
| 2026-04-26 10:16 | 20.44265 | -17.06982 | 40990 ft | 483 kts | 354° |
| 2026-04-26 10:17 | 20.50972 | -17.06488 | 40995 ft | 483 kts | 354° |
| 2026-04-26 10:17 | 20.57681 | -17.05993 | 40991 ft | 483 kts | 354° |
| 2026-04-26 10:18 | 20.64382 | -17.05498 | 40995 ft | 483 kts | 354° |
| 2026-04-26 10:18 | 20.71047 | -17.05006 | 40993 ft | 483 kts | 355° |
| 2026-04-26 10:19 | 20.77799 | -17.04507 | 40995 ft | 483 kts | 355° |
| 2026-04-26 10:19 | 20.84454 | -17.04014 | 40996 ft | 483 kts | 355° |
| 2026-04-26 10:20 | 20.90084 | -17.03442 | 41001 ft | 490 kts | 1° |
| 2026-04-26 10:20 | 20.97832 | -17.01190 | 40989 ft | 504 kts | 11° |
| 2026-04-26 10:21 | 21.04419 | -16.98581 | 40998 ft | 505 kts | 12° |
| 2026-04-26 10:21 | 21.11000 | -16.95983 | 40996 ft | 504 kts | 11° |
| 2026-04-26 10:22 | 21.17599 | -16.93439 | 41005 ft | 504 kts | 11° |
| 2026-04-26 10:22 | 21.24201 | -16.90905 | 40997 ft | 504 kts | 11° |
| 2026-04-26 10:23 | 21.30800 | -16.88365 | 41005 ft | 504 kts | 11° |
| 2026-04-26 10:23 | 21.37396 | -16.85796 | 41001 ft | 505 kts | 12° |
| 2026-04-26 10:24 | 21.43978 | -16.83158 | 41013 ft | 505 kts | 12° |
| 2026-04-26 10:24 | 21.50552 | -16.80515 | 41008 ft | 505 kts | 12° |
| 2026-04-26 10:25 | 21.57136 | -16.77877 | 41009 ft | 505 kts | 12° |
| 2026-04-26 10:25 | 21.63721 | -16.75241 | 41006 ft | 505 kts | 12° |
| 2026-04-26 10:26 | 21.70269 | -16.72617 | 41012 ft | 505 kts | 12° |
| 2026-04-26 10:26 | 21.76854 | -16.69974 | 41010 ft | 505 kts | 12° |
| 2026-04-26 10:27 | 21.83432 | -16.67332 | 41015 ft | 505 kts | 12° |
| 2026-04-26 10:27 | 21.90022 | -16.64720 | 41009 ft | 504 kts | 12° |
| 2026-04-26 10:28 | 21.96622 | -16.62165 | 41020 ft | 504 kts | 12° |
| 2026-04-26 10:28 | 22.03218 | -16.59613 | 41020 ft | 504 kts | 12° |
| 2026-04-26 10:29 | 22.09810 | -16.57049 | 41015 ft | 504 kts | 12° |
| 2026-04-26 10:29 | 22.16403 | -16.54477 | 41011 ft | 504 kts | 12° |
| 2026-04-26 10:30 | 22.22993 | -16.51903 | 41017 ft | 504 kts | 12° |
| 2026-04-26 10:30 | 22.29580 | -16.49327 | 41007 ft | 503 kts | 12° |
| 2026-04-26 10:31 | 22.36167 | -16.46750 | 41015 ft | 503 kts | 12° |
| 2026-04-26 10:31 | 22.42743 | -16.44174 | 41017 ft | 503 kts | 12° |
| 2026-04-26 10:32 | 22.49323 | -16.41594 | 41012 ft | 503 kts | 12° |
| 2026-04-26 10:32 | 22.55861 | -16.39028 | 41009 ft | 503 kts | 12° |
| 2026-04-26 10:33 | 22.62430 | -16.36447 | 41015 ft | 502 kts | 12° |
| 2026-04-26 10:33 | 22.68998 | -16.33864 | 41011 ft | 502 kts | 12° |
| 2026-04-26 10:34 | 22.75566 | -16.31279 | 41018 ft | 502 kts | 12° |
| 2026-04-26 10:34 | 22.82121 | -16.28696 | 41013 ft | 502 kts | 12° |
| 2026-04-26 10:35 | 22.87622 | -16.26525 | 41013 ft | 501 kts | 12° |
| 2026-04-26 10:35 | 22.95232 | -16.23521 | 41009 ft | 501 kts | 12° |
| 2026-04-26 10:36 | 23.00676 | -16.21369 | 41018 ft | 501 kts | 12° |
| 2026-04-26 10:36 | 23.07218 | -16.18780 | 41020 ft | 500 kts | 12° |
| 2026-04-26 10:37 | 23.13766 | -16.16187 | 41021 ft | 500 kts | 12° |
| 2026-04-26 10:37 | 23.20302 | -16.13596 | 41023 ft | 500 kts | 12° |
| 2026-04-26 10:38 | 23.26838 | -16.11002 | 41016 ft | 500 kts | 12° |
| 2026-04-26 10:38 | 23.33365 | -16.08408 | 41018 ft | 500 kts | 12° |
| 2026-04-26 10:39 | 23.39890 | -16.05813 | 41023 ft | 499 kts | 12° |
| 2026-04-26 10:39 | 23.46423 | -16.03212 | 41033 ft | 499 kts | 12° |
| 2026-04-26 10:40 | 23.52940 | -16.00615 | 41040 ft | 499 kts | 12° |
| 2026-04-26 10:40 | 23.59460 | -15.98013 | 41046 ft | 499 kts | 12° |
| 2026-04-26 10:41 | 23.65978 | -15.95409 | 41054 ft | 498 kts | 12° |
| 2026-04-26 10:41 | 23.72497 | -15.92881 | 41060 ft | 493 kts | 8° |
| 2026-04-26 10:42 | 23.79131 | -15.91401 | 41044 ft | 480 kts | 357° |
| 2026-04-26 10:42 | 23.85766 | -15.90732 | 41041 ft | 479 kts | 356° |
| 2026-04-26 10:43 | 23.92357 | -15.90101 | 41043 ft | 479 kts | 356° |
| 2026-04-26 10:43 | 23.98986 | -15.89428 | 41040 ft | 479 kts | 357° |
| 2026-04-26 10:44 | 24.05622 | -15.88731 | 41049 ft | 479 kts | 357° |
| 2026-04-26 10:44 | 24.12256 | -15.88028 | 41045 ft | 479 kts | 357° |
| 2026-04-26 10:45 | 24.18888 | -15.87326 | 41056 ft | 478 kts | 357° |
| 2026-04-26 10:45 | 24.25508 | -15.86626 | 41051 ft | 478 kts | 357° |
| 2026-04-26 10:46 | 24.32129 | -15.85925 | 41059 ft | 478 kts | 357° |
| 2026-04-26 10:46 | 24.38747 | -15.85224 | 41051 ft | 477 kts | 357° |
| 2026-04-26 10:47 | 24.45349 | -15.84524 | 41061 ft | 477 kts | 357° |
| 2026-04-26 10:47 | 24.51948 | -15.83823 | 41054 ft | 476 kts | 357° |
| 2026-04-26 10:48 | 24.58542 | -15.83123 | 41059 ft | 476 kts | 357° |
| 2026-04-26 10:48 | 24.65129 | -15.82422 | 41055 ft | 475 kts | 357° |
| 2026-04-26 10:49 | 24.71710 | -15.81721 | 41063 ft | 475 kts | 357° |
| 2026-04-26 10:49 | 24.78242 | -15.81025 | 41058 ft | 475 kts | 357° |
| 2026-04-26 10:50 | 24.83743 | -15.80438 | 41063 ft | 474 kts | 357° |
| 2026-04-26 10:50 | 24.91377 | -15.79623 | 41058 ft | 474 kts | 357° |
| 2026-04-26 10:51 | 25.01229 | -15.78567 | 41063 ft | 474 kts | 357° |
| 2026-04-26 10:52 | 25.07796 | -15.77830 | 41061 ft | 474 kts | 358° |
| 2026-04-26 10:52 | 25.14362 | -15.77077 | 41063 ft | 474 kts | 358° |
| 2026-04-26 10:53 | 25.20926 | -15.76326 | 41064 ft | 474 kts | 358° |
| 2026-04-26 10:53 | 25.27480 | -15.75579 | 41062 ft | 474 kts | 358° |
| 2026-04-26 10:54 | 25.37317 | -15.74459 | 41066 ft | 474 kts | 358° |
| 2026-04-26 10:54 | 25.43873 | -15.73711 | 41062 ft | 473 kts | 358° |
| 2026-04-26 10:55 | 25.50425 | -15.72963 | 41066 ft | 473 kts | 358° |
| 2026-04-26 10:55 | 25.56974 | -15.72214 | 41062 ft | 473 kts | 358° |
| 2026-04-26 10:56 | 25.63520 | -15.71465 | 41068 ft | 473 kts | 358° |
| 2026-04-26 10:56 | 25.70062 | -15.70716 | 41065 ft | 472 kts | 358° |
| 2026-04-26 10:57 | 25.76601 | -15.69966 | 41066 ft | 472 kts | 358° |
| 2026-04-26 10:57 | 25.83129 | -15.69216 | 41064 ft | 472 kts | 358° |
| 2026-04-26 10:58 | 25.89659 | -15.68465 | 41075 ft | 472 kts | 358° |
| 2026-04-26 10:58 | 25.96186 | -15.67715 | 41056 ft | 471 kts | 358° |
| 2026-04-26 10:59 | 26.02709 | -15.66963 | 41068 ft | 471 kts | 358° |
| 2026-04-26 10:59 | 26.09227 | -15.66211 | 41064 ft | 471 kts | 358° |
| 2026-04-26 11:00 | 26.15734 | -15.65460 | 41072 ft | 470 kts | 358° |
| 2026-04-26 11:00 | 26.22069 | -15.64726 | 41067 ft | 471 kts | 358° |
| 2026-04-26 11:01 | 26.28558 | -15.63800 | 40886 ft | 464 kts | 359° |
| 2026-04-26 11:01 | 26.31733 | -15.63299 | 40309 ft | 462 kts | 359° |
| 2026-04-26 11:01 | 26.34881 | -15.62805 | 39550 ft | 464 kts | 359° |
| 2026-04-26 11:02 | 26.38085 | -15.62309 | 38845 ft | 465 kts | 358° |
| 2026-04-26 11:02 | 26.41291 | -15.61818 | 38028 ft | 465 kts | 358° |
| 2026-04-26 11:02 | 26.44498 | -15.61332 | 37172 ft | 465 kts | 358° |
| 2026-04-26 11:02 | 26.47711 | -15.60849 | 36300 ft | 466 kts | 359° |
| 2026-04-26 11:03 | 26.50922 | -15.60366 | 35430 ft | 467 kts | 359° |
| 2026-04-26 11:03 | 26.54144 | -15.59882 | 34594 ft | 468 kts | 359° |
| 2026-04-26 11:03 | 26.57374 | -15.59397 | 33658 ft | 469 kts | 360° |
| 2026-04-26 11:03 | 26.60609 | -15.58911 | 32558 ft | 471 kts | 0° |
| 2026-04-26 11:04 | 26.63872 | -15.58422 | 31400 ft | 475 kts | 1° |
| 2026-04-26 11:04 | 26.67160 | -15.57928 | 30271 ft | 478 kts | 2° |
| 2026-04-26 11:04 | 26.70459 | -15.57429 | 29265 ft | 476 kts | 2° |
| 2026-04-26 11:04 | 26.73702 | -15.56932 | 28920 ft | 460 kts | 2° |
| 2026-04-26 11:05 | 26.76806 | -15.56450 | 28878 ft | 440 kts | 2° |
| 2026-04-26 11:05 | 26.79766 | -15.55992 | 28853 ft | 421 kts | 2° |
| 2026-04-26 11:05 | 26.85614 | -15.55113 | 28863 ft | 425 kts | 2° |
| 2026-04-26 11:06 | 26.90458 | -15.54385 | 28860 ft | 421 kts | 2° |
| 2026-04-26 11:06 | 26.97173 | -15.52830 | 28366 ft | 415 kts | 1° |
| 2026-04-26 11:07 | 26.99997 | -15.52605 | 28086 ft | 401 kts | 1° |
| 2026-04-26 11:07 | 27.02775 | -15.51892 | 28072 ft | 420 kts | 15° |
| 2026-04-26 11:07 | 27.05455 | -15.50466 | 28075 ft | 435 kts | 25° |
| 2026-04-26 11:07 | 27.08013 | -15.48607 | 28062 ft | 438 kts | 28° |
| 2026-04-26 11:08 | 27.13083 | -15.44859 | 28066 ft | 436 kts | 28° |
| 2026-04-26 11:08 | 27.18158 | -15.41155 | 28059 ft | 435 kts | 28° |
| 2026-04-26 11:09 | 27.23244 | -15.37457 | 28062 ft | 435 kts | 28° |
| 2026-04-26 11:09 | 27.28333 | -15.33757 | 28060 ft | 436 kts | 28° |
| 2026-04-26 11:10 | 27.33424 | -15.30048 | 27868 ft | 434 kts | 28° |
| 2026-04-26 11:10 | 27.35951 | -15.28205 | 27295 ft | 431 kts | 29° |
| 2026-04-26 11:10 | 27.38458 | -15.26376 | 26715 ft | 429 kts | 29° |
| 2026-04-26 11:11 | 27.40956 | -15.24553 | 26171 ft | 426 kts | 29° |
| 2026-04-26 11:11 | 27.43432 | -15.22745 | 25632 ft | 423 kts | 30° |
| 2026-04-26 11:11 | 27.45896 | -15.20944 | 25141 ft | 420 kts | 30° |
| 2026-04-26 11:11 | 27.48337 | -15.19160 | 24719 ft | 416 kts | 30° |
| 2026-04-26 11:12 | 27.50741 | -15.17401 | 24450 ft | 408 kts | 30° |
| 2026-04-26 11:12 | 27.53102 | -15.15672 | 24159 ft | 401 kts | 30° |
| 2026-04-26 11:12 | 27.55395 | -15.13993 | 23786 ft | 397 kts | 30° |
| 2026-04-26 11:12 | 27.57711 | -15.12298 | 23292 ft | 396 kts | 30° |
| 2026-04-26 11:13 | 27.60019 | -15.10608 | 22789 ft | 395 kts | 30° |
| 2026-04-26 11:13 | 27.62314 | -15.08925 | 22343 ft | 392 kts | 30° |
| 2026-04-26 11:13 | 27.64584 | -15.07260 | 21921 ft | 388 kts | 30° |
| 2026-04-26 11:13 | 27.66841 | -15.05603 | 21497 ft | 386 kts | 30° |
| 2026-04-26 11:14 | 27.69081 | -15.03958 | 21070 ft | 383 kts | 30° |
| 2026-04-26 11:14 | 27.71308 | -15.02322 | 20649 ft | 381 kts | 30° |
| 2026-04-26 11:14 | 27.73522 | -15.00695 | 20234 ft | 378 kts | 30° |
| 2026-04-26 11:14 | 27.74981 | -14.99623 | 19965 ft | 377 kts | 30° |
| 2026-04-26 11:15 | 27.78002 | -14.97722 | 19339 ft | 369 kts | 17° |
| 2026-04-26 11:15 | 27.80466 | -14.97115 | 19006 ft | 350 kts | 0° |
| 2026-04-26 11:15 | 27.82783 | -14.97152 | 18826 ft | 317 kts | 351° |
| 2026-04-26 11:15 | 27.84872 | -14.97520 | 18505 ft | 294 kts | 345° |
| 2026-04-26 11:16 | 27.86840 | -14.98003 | 17921 ft | 290 kts | 344° |
| 2026-04-26 11:16 | 27.88810 | -14.98497 | 17551 ft | 288 kts | 344° |
| 2026-04-26 11:16 | 27.90763 | -14.98976 | 17096 ft | 288 kts | 345° |
| 2026-04-26 11:16 | 27.92726 | -14.99423 | 16441 ft | 287 kts | 352° |
| 2026-04-26 11:17 | 27.94720 | -14.99333 | 15833 ft | 288 kts | 5° |
| 2026-04-26 11:17 | 27.96703 | -14.98957 | 15248 ft | 291 kts | 7° |
| 2026-04-26 11:17 | 27.98720 | -14.98555 | 14671 ft | 296 kts | 7° |
| 2026-04-26 11:17 | 28.00718 | -14.98195 | 14070 ft | 286 kts | 6° |
| 2026-04-26 11:18 | 28.02657 | -14.97881 | 13446 ft | 277 kts | 5° |
| 2026-04-26 11:18 | 28.04543 | -14.97591 | 12803 ft | 270 kts | 5° |
| 2026-04-26 11:18 | 28.06382 | -14.97312 | 12172 ft | 264 kts | 5° |
| 2026-04-26 11:18 | 28.08168 | -14.96900 | 11553 ft | 267 kts | 20° |
| 2026-04-26 11:19 | 28.09745 | -14.95715 | 10988 ft | 281 kts | 43° |
| 2026-04-26 11:19 | 28.10901 | -14.93881 | 10423 ft | 294 kts | 63° |
| 2026-04-26 11:19 | 28.11426 | -14.91612 | 9836 ft | 306 kts | 86° |
| 2026-04-26 11:19 | 28.11090 | -14.89224 | 9182 ft | 306 kts | 112° |
| 2026-04-26 11:20 | 28.09895 | -14.87316 | 8525 ft | 295 kts | 139° |
| 2026-04-26 11:20 | 28.08773 | -14.86490 | 8114 ft | 288 kts | 156° |
| 2026-04-26 11:20 | 28.06223 | -14.86009 | 7295 ft | 274 kts | 187° |
| 2026-04-26 11:20 | 28.04401 | -14.86512 | 6705 ft | 266 kts | 203° |
| 2026-04-26 11:21 | 28.02843 | -14.87561 | 6072 ft | 259 kts | 224° |
| 2026-04-26 11:21 | 28.01567 | -14.88997 | 5480 ft | 263 kts | 228° |
| 2026-04-26 11:21 | 28.00289 | -14.90486 | 5220 ft | 262 kts | 228° |
| 2026-04-26 11:21 | 27.99028 | -14.91943 | 5059 ft | 255 kts | 228° |
| 2026-04-26 11:22 | 27.97807 | -14.93347 | 5057 ft | 249 kts | 228° |
| 2026-04-26 11:22 | 27.97005 | -14.94264 | 5055 ft | 248 kts | 228° |
| 2026-04-26 11:22 | 27.95795 | -14.95643 | 5051 ft | 247 kts | 227° |
| 2026-04-26 11:22 | 27.94581 | -14.97022 | 5055 ft | 247 kts | 227° |
| 2026-04-26 11:23 | 27.93363 | -14.98403 | 5061 ft | 248 kts | 227° |
| 2026-04-26 11:23 | 27.92169 | -14.99808 | 5049 ft | 244 kts | 236° |
| 2026-04-26 11:23 | 27.91430 | -15.01491 | 5061 ft | 240 kts | 252° |
| 2026-04-26 11:23 | 27.90774 | -15.03260 | 5062 ft | 246 kts | 250° |
| 2026-04-26 11:24 | 27.90090 | -15.05022 | 5056 ft | 244 kts | 249° |
| 2026-04-26 11:24 | 27.89409 | -15.06774 | 5049 ft | 243 kts | 249° |
| 2026-04-26 11:24 | 27.88735 | -15.08516 | 5048 ft | 241 kts | 250° |
| 2026-04-26 11:24 | 27.88067 | -15.10246 | 5047 ft | 240 kts | 250° |
| 2026-04-26 11:25 | 27.87404 | -15.11971 | 5051 ft | 239 kts | 250° |
| 2026-04-26 11:25 | 27.86742 | -15.13692 | 5059 ft | 239 kts | 250° |
| 2026-04-26 11:25 | 27.86079 | -15.15417 | 5048 ft | 240 kts | 250° |
| 2026-04-26 11:25 | 27.85415 | -15.17147 | 4950 ft | 240 kts | 250° |
| 2026-04-26 11:26 | 27.84747 | -15.18886 | 4766 ft | 242 kts | 250° |
| 2026-04-26 11:26 | 27.84081 | -15.20618 | 4636 ft | 240 kts | 250° |
| 2026-04-26 11:26 | 27.83416 | -15.22350 | 4483 ft | 240 kts | 250° |
| 2026-04-26 11:26 | 27.82751 | -15.24081 | 4341 ft | 240 kts | 250° |
| 2026-04-26 11:27 | 27.82092 | -15.25794 | 4289 ft | 235 kts | 250° |
| 2026-04-26 11:27 | 27.81447 | -15.27470 | 4245 ft | 230 kts | 250° |
| 2026-04-26 11:27 | 27.80814 | -15.29115 | 4178 ft | 226 kts | 250° |
| 2026-04-26 11:27 | 27.80199 | -15.30712 | 4092 ft | 218 kts | 250° |
| 2026-04-26 11:28 | 27.79603 | -15.32260 | 4004 ft | 213 kts | 250° |
| 2026-04-26 11:28 | 27.79013 | -15.33796 | 4019 ft | 214 kts | 250° |
| 2026-04-26 11:28 | 27.78415 | -15.35353 | 4005 ft | 218 kts | 250° |
| 2026-04-26 11:28 | 27.77807 | -15.36931 | 4037 ft | 219 kts | 250° |
| 2026-04-26 11:29 | 27.77201 | -15.38506 | 4040 ft | 219 kts | 250° |
| 2026-04-26 11:29 | 27.76603 | -15.40055 | 3972 ft | 210 kts | 250° |
| 2026-04-26 11:29 | 27.76037 | -15.41514 | 3828 ft | 196 kts | 250° |
| 2026-04-26 11:29 | 27.75565 | -15.42904 | 3534 ft | 184 kts | 265° |
| 2026-04-26 11:30 | 27.75786 | -15.44249 | 3117 ft | 173 kts | 306° |
| 2026-04-26 11:30 | 27.76316 | -15.44892 | 2850 ft | 167 kts | 326° |
| 2026-04-26 11:30 | 27.77734 | -15.45102 | 2516 ft | 149 kts | 14° |
| 2026-04-26 11:30 | 27.78672 | -15.44811 | 2509 ft | 130 kts | 14° |
| 2026-04-26 11:31 | 27.79512 | -15.44568 | 2501 ft | 123 kts | 13° |
| 2026-04-26 11:31 | 27.80343 | -15.44287 | 2524 ft | 129 kts | 17° |
| 2026-04-26 11:31 | 27.81213 | -15.43943 | 2343 ft | 129 kts | 18° |
| 2026-04-26 11:31 | 27.82022 | -15.43594 | 2144 ft | 121 kts | 19° |
| 2026-04-26 11:32 | 27.82811 | -15.43250 | 2018 ft | 122 kts | 19° |
| 2026-04-26 11:32 | 27.83611 | -15.42898 | 1845 ft | 124 kts | 20° |
| 2026-04-26 11:32 | 27.84406 | -15.42544 | 1688 ft | 125 kts | 20° |
| 2026-04-26 11:32 | 27.85208 | -15.42189 | 1488 ft | 124 kts | 19° |
| 2026-04-26 11:33 | 27.86025 | -15.41831 | 1355 ft | 127 kts | 19° |
| 2026-04-26 11:33 | 27.86833 | -15.41470 | 1160 ft | 122 kts | 20° |
| 2026-04-26 11:33 | 27.87631 | -15.41118 | 1007 ft | 124 kts | 20° |
| 2026-04-26 11:33 | 27.88433 | -15.40763 | 847 ft | 125 kts | 20° |
| 2026-04-26 11:34 | 27.89252 | -15.40399 | 680 ft | 127 kts | 17° |
| 2026-04-26 11:34 | 27.90048 | -15.40047 | 511 ft | 119 kts | 20° |
| 2026-04-26 11:34 | 27.90833 | -15.39695 | 371 ft | 122 kts | 19° |
| 2026-04-26 11:34 | 27.91613 | -15.39350 | 209 ft | 119 kts | 20° |
| 2026-04-26 11:35 | 27.92375 | -15.39013 | 91 ft | 110 kts | 20° |
| 2026-04-26 11:35 | 27.92987 | -15.38750 | 64 ft | 74 kts | 20° |
| 2026-04-26 11:35 | 27.93322 | -15.38603 | 58 ft | 30 kts | 24° |
| 2026-04-26 11:35 | 27.93500 | -15.38523 | 58 ft | 27 kts | 21° |
| 2026-04-26 11:36 | 27.93678 | -15.38444 | 55 ft | 27 kts | 19° |
| 2026-04-26 11:36 | 27.93862 | -15.38423 | 53 ft | 25 kts | 354° |
| 2026-04-26 11:36 | 27.94001 | -15.38462 | 50 ft | 11 kts | 309° |
| 2026-04-26 11:36 | 27.93979 | -15.38513 | 52 ft | 7 kts | 187° |
| 2026-04-26 11:37 | 27.93928 | -15.38523 | 49 ft | 7 kts | 200° |
| 2026-04-26 11:37 | 27.93880 | -15.38543 | 50 ft | 7 kts | 200° |
| 2026-04-26 11:37 | 27.93818 | -15.38569 | 50 ft | 1 kts | 201° |
| 2026-04-26 11:37 | 27.93811 | -15.38572 | 52 ft | 1 kts | 201° |
| 2026-04-26 11:38 | 27.93804 | -15.38575 | 53 ft | 1 kts | 201° |
| 2026-04-26 11:38 | 27.93799 | -15.38581 | 49 ft | 1 kts | 228° |
| 2026-04-26 11:38 | 27.93798 | -15.38591 | 49 ft | 1 kts | 262° |
| 2026-04-26 11:38 | 27.93797 | -15.38602 | 57 ft | 2 kts | 264° |
| 2026-04-26 11:39 | 27.93799 | -15.38633 | 55 ft | 5 kts | 280° |
| 2026-04-26 11:39 | 27.93803 | -15.38647 | 53 ft | 1 kts | 290° |
| 2026-04-26 11:39 | 27.93806 | -15.38654 | 53 ft | 0 kts | 290° |